createdAt,value
2022-08-28T00:01:28.947Z,20.65
2022-08-28T00:03:56.174Z,20.65
2022-08-28T00:06:23.414Z,20.64
2022-08-28T00:08:50.611Z,20.59
2022-08-28T00:11:17.811Z,20.52
2022-08-28T00:13:45.483Z,20.52
2022-08-28T00:16:13.378Z,20.44
2022-08-28T00:18:40.709Z,20.49
2022-08-28T00:21:08.213Z,20.51
2022-08-28T00:23:42.846Z,20.50
2022-08-28T00:26:11.272Z,20.44
2022-08-28T00:28:38.551Z,20.43
2022-08-28T00:31:05.884Z,20.35
2022-08-28T00:33:34.190Z,20.39
2022-08-28T00:36:02.403Z,20.51
2022-08-28T00:38:29.827Z,20.57
2022-08-28T00:40:59.353Z,20.62
2022-08-28T00:43:35.547Z,20.67
2022-08-28T00:46:04.414Z,20.74
2022-08-28T00:48:32.901Z,20.92
2022-08-28T00:51:18.878Z,20.96
2022-08-28T00:53:46.339Z,20.94
2022-08-28T00:56:14.888Z,20.79
2022-08-28T00:58:43.327Z,20.48
2022-08-28T01:01:11.341Z,20.37
2022-08-28T01:03:38.575Z,20.40
2022-08-28T01:06:06.787Z,20.49
2022-08-28T01:08:35.313Z,20.52
2022-08-28T01:11:03.626Z,20.56
2022-08-28T01:13:31.210Z,20.60
2022-08-28T01:15:59.089Z,20.66
2022-08-28T01:18:27.682Z,20.66
2022-08-28T01:20:59.265Z,20.64
2022-08-28T01:23:41.162Z,20.63
2022-08-28T01:26:10.947Z,20.64
2022-08-28T01:28:39.788Z,20.62
2022-08-28T01:31:10.448Z,20.64
2022-08-28T01:33:39.310Z,20.65
2022-08-28T01:36:12.110Z,20.67
2022-08-28T01:38:40.456Z,20.58
2022-08-28T01:41:07.654Z,20.60
2022-08-28T01:43:34.917Z,20.58
2022-08-28T01:46:06.233Z,20.61
2022-08-28T01:48:36.091Z,20.53
2022-08-28T01:51:04.452Z,20.53
2022-08-28T01:53:33.083Z,20.57
2022-08-28T01:56:04.680Z,20.60
2022-08-28T01:58:37.906Z,20.58
2022-08-28T02:01:16.668Z,20.46
2022-08-28T02:03:43.970Z,20.30
2022-08-28T02:06:11.332Z,20.26
2022-08-28T02:08:38.800Z,20.36
2022-08-28T02:11:06.401Z,20.40
2022-08-28T02:13:35.829Z,20.42
2022-08-28T02:16:04.187Z,20.40
2022-08-28T02:18:31.800Z,20.45
2022-08-28T02:20:59.404Z,20.46
2022-08-28T02:23:26.740Z,20.43
2022-08-28T02:25:53.960Z,20.35
2022-08-28T02:28:21.345Z,20.30
2022-08-28T02:30:48.616Z,20.33
2022-08-28T02:33:16.310Z,20.37
2022-08-28T02:35:43.557Z,20.36
2022-08-28T02:38:10.870Z,20.33
2022-08-28T02:40:41.260Z,20.13
2022-08-28T02:43:08.544Z,20.02
2022-08-28T02:45:36.400Z,19.96
2022-08-28T02:48:04.272Z,20.08
2022-08-28T02:50:39.285Z,20.10
2022-08-28T02:53:06.510Z,19.99
2022-08-28T02:55:34.305Z,20.10
2022-08-28T02:58:02.105Z,20.10
2022-08-28T03:00:29.299Z,20.10
2022-08-28T03:02:56.584Z,20.11
2022-08-28T03:05:25.151Z,20.08
2022-08-28T03:07:56.260Z,19.97
2022-08-28T03:10:23.559Z,20.00
2022-08-28T03:12:51.783Z,20.02
2022-08-28T03:15:19.428Z,19.97
2022-08-28T03:17:47.959Z,19.96
2022-08-28T03:20:15.792Z,19.96
2022-08-28T03:23:01.726Z,19.98
2022-08-28T03:25:29.924Z,20.02
2022-08-28T03:27:57.553Z,20.12
2022-08-28T03:30:24.960Z,20.06
2022-08-28T03:32:52.272Z,19.92
2022-08-28T03:35:20.300Z,19.86
2022-08-28T03:37:47.880Z,19.85
2022-08-28T03:40:15.257Z,19.92
2022-08-28T03:42:42.842Z,19.95
2022-08-28T03:45:20.661Z,19.92
2022-08-28T03:47:47.893Z,19.90
2022-08-28T03:50:16.820Z,19.97
2022-08-28T03:52:44.205Z,19.99
2022-08-28T03:55:12.377Z,19.94
2022-08-28T03:57:39.917Z,19.93
2022-08-28T04:00:09.154Z,19.96
2022-08-28T04:02:43.046Z,19.94
2022-08-28T04:05:11.168Z,19.92
2022-08-28T04:07:40.138Z,19.87
2022-08-28T04:10:07.691Z,19.84
2022-08-28T04:12:36.100Z,19.85
2022-08-28T04:15:05.655Z,19.85
2022-08-28T04:17:34.510Z,19.80
2022-08-28T04:20:01.842Z,19.81
2022-08-28T04:22:30.400Z,19.80
2022-08-28T04:24:57.666Z,19.80
2022-08-28T04:27:24.956Z,19.70
2022-08-28T04:29:52.208Z,19.58
2022-08-28T04:32:19.516Z,19.61
2022-08-28T04:34:46.904Z,19.73
2022-08-28T04:37:15.191Z,19.76
2022-08-28T04:39:43.579Z,19.63
2022-08-28T04:42:11.199Z,19.41
2022-08-28T04:45:09.009Z,19.55
2022-08-28T04:47:40.590Z,19.63
2022-08-28T04:50:08.379Z,19.65
2022-08-28T04:52:35.808Z,19.65
2022-08-28T04:55:03.196Z,19.68
2022-08-28T04:57:34.524Z,19.68
2022-08-28T05:00:05.854Z,19.69
2022-08-28T05:02:33.132Z,19.72
2022-08-28T05:05:00.430Z,19.74
2022-08-28T05:07:27.694Z,19.73
2022-08-28T05:09:54.928Z,19.71
2022-08-28T05:12:22.198Z,19.69
2022-08-28T05:14:49.657Z,19.69
2022-08-28T05:17:16.982Z,19.75
2022-08-28T05:19:44.245Z,19.69
2022-08-28T05:22:11.526Z,19.70
2022-08-28T05:24:40.241Z,19.77
2022-08-28T05:27:08.698Z,19.84
2022-08-28T05:29:36.078Z,19.85
2022-08-28T05:32:03.785Z,19.88
2022-08-28T05:34:31.755Z,19.91
2022-08-28T05:36:59.228Z,19.93
2022-08-28T05:39:26.469Z,19.99
2022-08-28T05:41:53.732Z,20.04
2022-08-28T05:44:21.047Z,20.06
2022-08-28T05:46:48.529Z,20.07
2022-08-28T05:49:17.901Z,19.92
2022-08-28T05:51:45.526Z,19.78
2022-08-28T05:54:12.858Z,19.82
2022-08-28T05:56:40.697Z,19.89
2022-08-28T05:59:08.721Z,20.08
2022-08-28T06:01:39.080Z,20.27
2022-08-28T06:04:08.629Z,20.48
2022-08-28T06:06:37.139Z,20.73
2022-08-28T06:09:06.522Z,20.99
2022-08-28T06:11:33.875Z,21.06
2022-08-28T06:14:04.498Z,21.07
2022-08-28T06:16:32.415Z,21.09
2022-08-28T06:19:00.683Z,21.14
2022-08-28T06:21:28.613Z,21.27
2022-08-28T06:23:56.113Z,21.30
2022-08-28T06:26:23.526Z,21.29
2022-08-28T06:28:51.720Z,21.51
2022-08-28T06:31:23.427Z,21.58
2022-08-28T06:33:57.114Z,21.52
2022-08-28T06:36:25.370Z,21.39
2022-08-28T06:38:52.684Z,21.39
2022-08-28T06:41:19.880Z,21.44
2022-08-28T06:43:47.186Z,21.69
2022-08-28T06:46:14.678Z,21.84
2022-08-28T06:48:42.006Z,21.79
2022-08-28T06:51:10.888Z,21.72
2022-08-28T06:53:43.125Z,21.75
2022-08-28T06:56:11.265Z,21.85
2022-08-28T06:58:42.613Z,21.99
2022-08-28T07:01:22.751Z,22.17
2022-08-28T07:03:51.668Z,22.32
2022-08-28T07:06:20.162Z,22.51
2022-08-28T07:08:48.073Z,22.60
2022-08-28T07:11:26.593Z,22.77
2022-08-28T07:14:04.091Z,22.91
2022-08-28T07:16:33.462Z,23.03
2022-08-28T07:19:04.375Z,23.05
2022-08-28T07:21:33.325Z,23.07
2022-08-28T07:24:14.720Z,23.05
2022-08-28T07:26:43.657Z,23.11
2022-08-28T07:29:11.777Z,23.12
2022-08-28T07:31:42.957Z,23.21
2022-08-28T07:34:11.111Z,23.00
2022-08-28T07:36:38.538Z,22.85
2022-08-28T07:39:06.488Z,22.91
2022-08-28T07:41:35.648Z,22.91
2022-08-28T07:44:21.760Z,23.09
2022-08-28T07:46:52.828Z,23.14
2022-08-28T07:49:20.092Z,23.24
2022-08-28T07:51:47.322Z,23.26
2022-08-28T07:54:18.283Z,23.34
2022-08-28T07:56:46.295Z,23.51
2022-08-28T07:59:16.932Z,23.42
2022-08-28T08:01:46.576Z,23.58
2022-08-28T08:04:15.995Z,23.67
2022-08-28T08:06:43.887Z,23.82
2022-08-28T08:09:12.338Z,23.88
2022-08-28T08:11:39.483Z,23.95
2022-08-28T08:14:11.753Z,24.09
2022-08-28T08:16:41.068Z,24.18
2022-08-28T08:19:15.100Z,24.24
2022-08-28T08:21:43.822Z,24.29
2022-08-28T08:24:19.628Z,24.49
2022-08-28T08:26:54.079Z,24.39
2022-08-28T08:29:31.924Z,24.46
2022-08-28T08:32:05.099Z,24.44
2022-08-28T08:34:38.754Z,24.52
2022-08-28T08:37:06.921Z,24.68
2022-08-28T08:39:35.070Z,24.99
2022-08-28T08:42:03.575Z,25.19
2022-08-28T08:44:39.028Z,25.20
2022-08-28T08:47:07.853Z,25.49
2022-08-28T08:49:40.101Z,25.55
2022-08-28T08:52:17.024Z,25.54
2022-08-28T08:54:45.239Z,25.27
2022-08-28T08:57:14.774Z,25.32
2022-08-28T08:59:42.196Z,25.43
2022-08-28T09:02:14.753Z,25.65
2022-08-28T09:04:46.414Z,26.22
2022-08-28T09:07:16.541Z,28.91
2022-08-28T09:09:46.567Z,29.52
2022-08-28T09:12:15.705Z,30.59
2022-08-28T09:15:09.767Z,30.10
2022-08-28T09:17:39.502Z,28.62
2022-08-28T09:20:10.592Z,27.96
2022-08-28T09:22:37.901Z,28.40
2022-08-28T09:25:06.594Z,29.80
2022-08-28T09:27:35.929Z,30.06
2022-08-28T09:30:10.597Z,28.58
2022-08-28T09:32:41.432Z,27.53
2022-08-28T09:35:13.785Z,26.85
2022-08-28T09:37:41.813Z,26.48
2022-08-28T09:41:00.188Z,26.49
2022-08-28T09:43:28.151Z,26.47
2022-08-28T09:46:14.087Z,26.32
2022-08-28T09:48:45.565Z,26.53
2022-08-28T09:51:26.821Z,26.70
2022-08-28T09:53:57.409Z,26.79
2022-08-28T09:56:27.467Z,26.84
2022-08-28T09:59:13.961Z,26.69
2022-08-28T10:01:44.805Z,26.60
2022-08-28T10:04:19.351Z,26.67
2022-08-28T10:06:49.319Z,26.69
2022-08-28T10:09:33.715Z,26.81
2022-08-28T10:12:11.164Z,26.68
2022-08-28T10:14:48.326Z,26.61
2022-08-28T10:17:16.059Z,26.66
2022-08-28T10:19:53.661Z,26.59
2022-08-28T10:22:28.793Z,26.17
2022-08-28T10:25:06.768Z,26.27
2022-08-28T10:27:43.285Z,26.51
2022-08-28T10:30:14.126Z,26.62
2022-08-28T10:32:53.590Z,26.72
2022-08-28T10:35:23.933Z,26.76
2022-08-28T10:37:51.156Z,26.47
2022-08-28T10:40:38.702Z,26.52
2022-08-28T10:43:14.581Z,26.69
2022-08-28T10:45:42.274Z,26.85
2022-08-28T10:48:22.595Z,26.87
2022-08-28T10:51:00.061Z,26.93
2022-08-28T10:53:36.539Z,26.89
2022-08-28T10:56:09.033Z,26.91
2022-08-28T10:58:38.290Z,26.94
2022-08-28T11:01:08.923Z,26.99
2022-08-28T11:03:45.235Z,26.98
2022-08-28T11:06:22.598Z,26.91
2022-08-28T11:08:52.755Z,26.92
2022-08-28T11:11:39.924Z,26.83
2022-08-28T11:14:22.894Z,26.76
2022-08-28T11:16:50.573Z,26.67
2022-08-28T11:19:18.793Z,26.73
2022-08-28T11:21:49.329Z,26.79
2022-08-28T11:24:25.859Z,26.80
2022-08-28T11:27:12.595Z,26.75
2022-08-28T11:29:58.796Z,26.85
2022-08-28T11:32:28.719Z,26.88
2022-08-28T11:35:00.620Z,26.96
2022-08-28T11:37:39.574Z,26.96
2022-08-28T11:40:15.836Z,27.00
2022-08-28T11:42:43.204Z,27.06
2022-08-28T11:45:18.308Z,27.06
2022-08-28T11:47:47.082Z,27.17
2022-08-28T11:50:25.474Z,27.17
2022-08-28T11:53:01.926Z,27.22
2022-08-28T11:55:45.487Z,27.22
2022-08-28T11:58:20.619Z,27.29
2022-08-28T12:00:47.846Z,27.12
2022-08-28T12:03:31.967Z,27.15
2022-08-28T12:06:00.334Z,27.23
2022-08-28T12:08:48.958Z,27.20
2022-08-28T12:11:54.737Z,27.24
2022-08-28T12:14:22.035Z,27.24
2022-08-28T12:17:12.218Z,27.24
2022-08-28T12:19:52.465Z,27.27
2022-08-28T12:22:24.980Z,27.32
2022-08-28T12:24:54.989Z,27.30
2022-08-28T12:27:22.508Z,27.39
2022-08-28T12:30:00.282Z,27.41
2022-08-28T12:32:27.525Z,27.30
2022-08-28T12:34:57.456Z,27.30
2022-08-28T12:37:52.580Z,27.33
2022-08-28T12:40:20.492Z,27.35
2022-08-28T12:43:11.016Z,27.32
2022-08-28T12:45:50.055Z,27.24
2022-08-28T12:48:25.027Z,27.34
2022-08-28T12:50:58.617Z,27.41
2022-08-28T12:53:26.879Z,27.46
2022-08-28T12:55:55.964Z,27.48
2022-08-28T12:58:28.646Z,27.47
2022-08-28T13:00:58.176Z,27.49
2022-08-28T13:03:25.774Z,27.45
2022-08-28T13:06:07.536Z,27.43
2022-08-28T13:08:35.857Z,27.40
2022-08-28T13:11:03.493Z,27.41
2022-08-28T13:13:35.949Z,27.42
2022-08-28T13:16:10.211Z,27.45
2022-08-28T13:18:42.133Z,27.49
2022-08-28T13:21:22.560Z,27.49
2022-08-28T13:24:02.005Z,27.49
2022-08-28T13:26:33.167Z,27.32
2022-08-28T13:29:01.733Z,27.34
2022-08-28T13:31:33.776Z,27.42
2022-08-28T13:34:13.033Z,27.57
2022-08-28T13:36:42.484Z,27.63
2022-08-28T13:39:09.833Z,27.56
2022-08-28T13:41:37.656Z,27.56
2022-08-28T13:44:05.544Z,27.66
2022-08-28T13:46:32.882Z,27.67
2022-08-28T13:49:00.709Z,27.64
2022-08-28T13:51:27.985Z,27.69
2022-08-28T13:53:55.206Z,27.65
2022-08-28T13:56:24.503Z,27.66
2022-08-28T13:58:58.028Z,27.55
2022-08-28T14:01:48.421Z,27.56
2022-08-28T14:04:15.843Z,27.61
2022-08-28T14:06:44.442Z,27.61
2022-08-28T14:09:17.807Z,27.63
2022-08-28T14:11:46.035Z,27.61
2022-08-28T14:14:13.362Z,27.58
2022-08-28T14:16:40.653Z,27.56
2022-08-28T14:19:08.228Z,27.61
2022-08-28T14:21:37.025Z,27.76
2022-08-28T14:24:04.300Z,27.67
2022-08-28T14:26:31.917Z,27.61
2022-08-28T14:28:59.641Z,27.57
2022-08-28T14:31:27.285Z,27.56
2022-08-28T14:33:54.921Z,27.57
2022-08-28T14:36:23.605Z,27.63
2022-08-28T14:38:54.012Z,27.64
2022-08-28T14:41:22.756Z,27.62
2022-08-28T14:43:50.116Z,27.62
2022-08-28T14:46:18.184Z,27.65
2022-08-28T14:48:45.737Z,27.65
2022-08-28T14:51:12.967Z,27.59
2022-08-28T14:53:40.477Z,27.54
2022-08-28T14:56:08.485Z,27.52
2022-08-28T14:58:36.455Z,27.55
2022-08-28T15:01:04.484Z,27.51
2022-08-28T15:03:32.190Z,27.51
2022-08-28T15:06:03.553Z,27.53
2022-08-28T15:08:31.259Z,27.52
2022-08-28T15:10:58.703Z,27.52
2022-08-28T15:13:25.896Z,27.53
2022-08-28T15:16:43.977Z,27.52
2022-08-28T15:19:13.093Z,27.53
2022-08-28T15:21:48.581Z,27.54
2022-08-28T15:24:17.348Z,27.57
2022-08-28T15:26:45.880Z,27.57
2022-08-28T15:29:13.330Z,27.53
2022-08-28T15:31:42.579Z,27.48
2022-08-28T15:34:15.130Z,27.42
2022-08-28T15:36:44.027Z,27.39
2022-08-28T15:39:30.555Z,27.35
2022-08-28T15:41:58.546Z,27.33
2022-08-28T15:44:26.298Z,27.27
2022-08-28T15:46:58.060Z,27.24
2022-08-28T15:49:26.397Z,27.20
2022-08-28T15:51:53.873Z,27.16
2022-08-28T15:54:22.402Z,27.14
2022-08-28T15:56:52.733Z,27.12
2022-08-28T15:59:21.665Z,27.10
2022-08-28T16:01:51.653Z,27.09
2022-08-28T16:04:19.621Z,27.08
2022-08-28T16:06:46.974Z,27.08
2022-08-28T16:09:14.725Z,27.08
2022-08-28T16:11:43.923Z,27.06
2022-08-28T16:14:12.265Z,27.04
2022-08-28T16:16:40.085Z,27.03
2022-08-28T16:19:13.865Z,27.01
2022-08-28T16:21:41.921Z,26.99
2022-08-28T16:24:09.232Z,26.98
2022-08-28T16:26:36.400Z,26.96
2022-08-28T16:29:03.717Z,26.93
2022-08-28T16:31:34.223Z,26.94
2022-08-28T16:34:02.989Z,26.91
2022-08-28T16:36:31.088Z,26.88
2022-08-28T16:39:03.607Z,26.86
2022-08-28T16:41:31.906Z,26.84
2022-08-28T16:43:59.273Z,26.80
2022-08-28T16:46:27.927Z,26.80
2022-08-28T16:48:55.272Z,26.78
2022-08-28T16:51:26.802Z,26.76
2022-08-28T16:53:54.775Z,26.79
2022-08-28T16:56:23.711Z,26.79
2022-08-28T16:58:53.232Z,26.79
2022-08-28T17:01:24.158Z,26.80
2022-08-28T17:03:52.884Z,26.78
2022-08-28T17:06:23.593Z,26.76
2022-08-28T17:08:55.882Z,26.72
2022-08-28T17:11:25.374Z,26.66
2022-08-28T17:13:52.983Z,26.66
2022-08-28T17:16:21.295Z,26.63
2022-08-28T17:18:52.459Z,26.60
2022-08-28T17:21:39.790Z,26.56
2022-08-28T17:24:07.557Z,26.57
2022-08-28T17:26:34.850Z,26.55
2022-08-28T17:29:02.939Z,26.54
2022-08-28T17:31:30.247Z,26.53
2022-08-28T17:33:57.846Z,26.51
2022-08-28T17:36:33.081Z,26.50
2022-08-28T17:39:02.857Z,26.47
2022-08-28T17:41:30.088Z,26.45
2022-08-28T17:43:57.354Z,26.42
2022-08-28T17:46:25.756Z,26.40
2022-08-28T17:48:56.197Z,26.38
2022-08-28T17:51:40.449Z,26.36
2022-08-28T17:54:14.490Z,26.35
2022-08-28T17:56:42.004Z,26.33
2022-08-28T17:59:10.188Z,26.29
2022-08-28T18:01:38.545Z,26.28
2022-08-28T18:04:06.096Z,26.24
2022-08-28T18:06:33.349Z,26.22
2022-08-28T18:09:00.848Z,26.22
2022-08-28T18:11:28.498Z,26.32
2022-08-28T18:13:55.819Z,26.35
2022-08-28T18:16:26.509Z,26.29
2022-08-28T18:18:57.018Z,26.23
2022-08-28T18:21:24.529Z,26.24
2022-08-28T18:23:51.782Z,26.27
2022-08-28T18:26:19.078Z,26.31
2022-08-28T18:28:46.732Z,26.34
2022-08-28T18:31:14.057Z,26.32
2022-08-28T18:33:41.355Z,26.26
2022-08-28T18:36:09.405Z,26.23
2022-08-28T18:38:36.984Z,26.28
2022-08-28T18:41:05.268Z,26.24
2022-08-28T18:43:33.413Z,26.22
2022-08-28T18:46:01.923Z,26.22
2022-08-28T18:48:29.534Z,26.16
2022-08-28T18:50:56.725Z,26.19
2022-08-28T18:53:24.021Z,26.23
2022-08-28T18:55:52.686Z,26.30
2022-08-28T18:58:21.867Z,26.27
2022-08-28T19:00:49.501Z,26.20
2022-08-28T19:03:17.437Z,26.14
2022-08-28T19:05:44.725Z,26.14
2022-08-28T19:08:12.492Z,26.16
2022-08-28T19:10:40.113Z,26.08
2022-08-28T19:13:08.018Z,26.12
2022-08-28T19:15:35.896Z,26.14
2022-08-28T19:18:04.165Z,26.04
2022-08-28T19:20:32.232Z,25.97
2022-08-28T19:22:59.953Z,25.93
2022-08-28T19:25:29.432Z,25.92
2022-08-28T19:27:59.084Z,25.97
2022-08-28T19:30:28.663Z,25.89
2022-08-28T19:32:55.892Z,25.79
2022-08-28T19:35:24.615Z,25.76
2022-08-28T19:37:52.543Z,25.71
2022-08-28T19:40:20.718Z,25.61
2022-08-28T19:42:49.923Z,25.72
2022-08-28T19:45:17.903Z,25.62
2022-08-28T19:47:45.469Z,25.71
2022-08-28T19:50:13.958Z,25.76
2022-08-28T19:52:43.108Z,25.83
2022-08-28T19:55:17.417Z,25.86
2022-08-28T19:57:45.647Z,25.87
2022-08-28T20:00:15.050Z,25.82
2022-08-28T20:02:42.383Z,25.78
2022-08-28T20:05:10.272Z,25.68
2022-08-28T20:07:37.702Z,25.59
2022-08-28T20:10:05.833Z,25.46
2022-08-28T20:12:33.610Z,25.45
2022-08-28T20:15:03.668Z,25.48
2022-08-28T20:17:31.276Z,25.39
2022-08-28T20:20:02.456Z,25.22
2022-08-28T20:22:32.035Z,25.13
2022-08-28T20:24:59.888Z,25.03
2022-08-28T20:27:28.151Z,24.99
2022-08-28T20:29:55.833Z,24.93
2022-08-28T20:32:23.025Z,24.98
2022-08-28T20:34:50.250Z,25.19
2022-08-28T20:37:17.526Z,25.18
2022-08-28T20:39:45.003Z,25.19
2022-08-28T20:42:13.653Z,25.31
2022-08-28T20:44:40.829Z,25.27
2022-08-28T20:47:08.094Z,25.36
2022-08-28T20:49:39.251Z,25.28
2022-08-28T20:52:06.875Z,25.28
2022-08-28T20:54:36.978Z,25.44
2022-08-28T20:57:11.768Z,25.40
2022-08-28T20:59:40.621Z,25.29
2022-08-28T21:02:18.422Z,25.33
2022-08-28T21:04:46.273Z,25.24
2022-08-28T21:07:14.734Z,25.15
2022-08-28T21:10:03.829Z,25.02
2022-08-28T21:12:29.168Z,24.95
2022-08-28T21:14:56.412Z,25.03
2022-08-28T21:17:29.821Z,24.97
2022-08-28T21:20:03.178Z,24.72
2022-08-28T21:22:32.425Z,24.49
2022-08-28T21:25:00.795Z,24.46
2022-08-28T21:27:28.429Z,24.44
2022-08-28T21:29:58.085Z,24.48
2022-08-28T21:32:26.296Z,24.53
2022-08-28T21:34:54.562Z,24.44
2022-08-28T21:37:22.372Z,24.38
2022-08-28T21:39:49.706Z,24.36
2022-08-28T21:42:16.999Z,24.33
2022-08-28T21:44:46.074Z,24.26
2022-08-28T21:47:21.458Z,24.20
2022-08-28T21:49:50.120Z,24.06
2022-08-28T21:52:18.377Z,24.13
2022-08-28T21:54:45.644Z,24.01
2022-08-28T21:57:12.857Z,24.06
2022-08-28T21:59:40.093Z,24.23
2022-08-28T22:02:07.442Z,24.28
2022-08-28T22:04:34.927Z,24.41
2022-08-28T22:07:02.221Z,24.39
2022-08-28T22:09:29.503Z,24.36
2022-08-28T22:11:57.199Z,24.31
2022-08-28T22:14:25.233Z,24.38
2022-08-28T22:16:52.573Z,24.45
2022-08-28T22:19:19.861Z,24.28
2022-08-28T22:22:05.768Z,24.08
2022-08-28T22:24:33.366Z,24.07
2022-08-28T22:27:00.590Z,24.05
2022-08-28T22:29:30.041Z,23.98
2022-08-28T22:31:57.379Z,24.05
2022-08-28T22:34:24.710Z,24.11
2022-08-28T22:36:52.010Z,24.18
2022-08-28T22:39:19.224Z,24.16
2022-08-28T22:41:46.430Z,24.18
2022-08-28T22:44:13.712Z,24.10
2022-08-28T22:46:40.959Z,23.97
2022-08-28T22:49:08.267Z,23.93
2022-08-28T22:51:35.546Z,23.97
2022-08-28T22:54:03.073Z,24.15
2022-08-28T22:56:30.325Z,24.33
2022-08-28T22:58:57.564Z,24.21
2022-08-28T23:01:25.333Z,24.05
2022-08-28T23:03:52.727Z,23.69
2022-08-28T23:06:21.628Z,23.66
2022-08-28T23:08:48.871Z,23.68
2022-08-28T23:11:16.124Z,23.78
2022-08-28T23:13:43.334Z,23.90
2022-08-28T23:16:10.688Z,24.03
2022-08-28T23:19:06.823Z,24.02
2022-08-28T23:21:26.383Z,23.75
2022-08-28T23:23:54.984Z,23.77
2022-08-28T23:26:22.365Z,23.78
2022-08-28T23:28:49.626Z,23.70
2022-08-28T23:31:16.954Z,23.91
2022-08-28T23:33:44.228Z,24.11
2022-08-28T23:36:11.483Z,24.14
2022-08-28T23:38:42.908Z,23.91
2022-08-28T23:41:11.236Z,23.87
2022-08-28T23:43:38.660Z,23.75
2022-08-28T23:46:06.606Z,23.56
2022-08-28T23:48:35.297Z,23.27
2022-08-28T23:51:02.702Z,23.54
2022-08-28T23:53:30.712Z,23.62
2022-08-28T23:55:59.453Z,23.63
2022-08-28T23:58:31.785Z,23.42
